Time;durP1;ratioP1;P1;durP2;ratioP2;P2;SDS_P1;SDS_P2;PMS_P1;PMS_P2;Temp;Humidity;BMP_temperature;BMP_pressure;BME280_temperature;BME280_humidity;BME280_pressure;Samples;Min_cycle;Max_cycle;Signal;HPM_P1;HPM_P2
2021/08/12 00:01:11;;;;;;;16.00;11.87;;;13.20;99.90;;;;;;5088617;28;20428;-79
2021/08/12 00:03:36;;;;;;;16.27;11.57;;;13.10;99.90;;;;;;5088483;28;20406;-80
2021/08/12 00:06:02;;;;;;;11.87;10.57;;;13.10;99.90;;;;;;5088462;28;20746;-80
2021/08/12 00:08:28;;;;;;;12.37;11.07;;;13.10;99.90;;;;;;5091292;28;20373;-81
2021/08/12 00:10:53;;;;;;;12.15;10.77;;;13.10;99.90;;;;;;5092056;28;20518;-77
2021/08/12 00:13:20;;;;;;;13.20;11.93;;;13.10;99.90;;;;;;5092222;28;20380;-77
2021/08/12 00:15:46;;;;;;;12.52;11.23;;;13.10;99.90;;;;;;5091992;28;20486;-78
2021/08/12 00:18:12;;;;;;;13.35;11.70;;;13.10;99.90;;;;;;5091391;28;20368;-80
2021/08/12 00:20:38;;;;;;;13.30;11.80;;;13.10;99.90;;;;;;5091664;28;20365;-80
2021/08/12 00:23:04;;;;;;;14.45;12.40;;;13.00;99.90;;;;;;5091945;28;20375;-80
2021/08/12 00:25:30;;;;;;;12.48;11.27;;;13.00;99.90;;;;;;5092025;28;20881;-78
2021/08/12 00:27:55;;;;;;;12.15;10.95;;;13.00;99.90;;;;;;5091552;28;20368;-79
2021/08/12 00:30:21;;;;;;;12.13;10.93;;;13.00;99.90;;;;;;5091000;28;20479;-79
2021/08/12 00:32:47;;;;;;;12.27;11.17;;;13.00;99.90;;;;;;5092148;28;20380;-77
2021/08/12 00:35:12;;;;;;;12.93;11.55;;;13.00;99.90;;;;;;5091471;28;20372;-78
2021/08/12 00:37:38;;;;;;;12.23;10.93;;;13.00;99.90;;;;;;5091608;28;20376;-78
2021/08/12 00:40:04;;;;;;;13.00;10.73;;;13.00;99.90;;;;;;5091389;28;20369;-79
2021/08/12 00:42:30;;;;;;;11.77;10.53;;;12.90;99.90;;;;;;5091772;28;20376;-78
2021/08/12 00:44:56;;;;;;;12.87;11.43;;;12.90;99.90;;;;;;5091370;28;20425;-79
2021/08/12 00:47:22;;;;;;;13.40;12.10;;;12.80;99.90;;;;;;5073005;28;20380;-80
2021/08/12 00:49:47;;;;;;;13.95;12.55;;;12.80;99.90;;;;;;5090901;28;20365;-79
2021/08/12 00:52:14;;;;;;;13.20;11.40;;;12.80;99.90;;;;;;5091564;28;20782;-80
2021/08/12 00:54:40;;;;;;;13.20;11.50;;;12.80;99.90;;;;;;5091943;28;20421;-76
2021/08/12 00:57:06;;;;;;;13.07;11.32;;;12.70;99.90;;;;;;5091217;28;20400;-79
2021/08/12 00:59:40;;;;;;;12.25;11.15;;;12.70;99.90;;;;;;5072858;28;20380;-77
2021/08/12 01:02:15;;;;;;;13.07;11.70;;;12.70;99.90;;;;;;5091260;28;20380;-80
2021/08/12 01:04:42;;;;;;;12.85;11.38;;;12.70;99.90;;;;;;5091251;28;20438;-76
2021/08/12 01:07:32;;;;;;;14.50;12.10;;;12.60;99.90;;;;;;5091083;28;20372;-79
2021/08/12 01:10:36;;;;;;;12.80;11.50;;;12.60;99.90;;;;;;5090487;28;20876;-81
2021/08/12 01:13:12;;;;;;;12.82;11.57;;;12.50;99.90;;;;;;5091093;28;20408;-80
2021/08/12 01:15:46;;;;;;;12.85;11.50;;;12.50;99.90;;;;;;5090943;28;20454;-80
2021/08/12 01:18:27;;;;;;;13.82;12.43;;;12.50;99.90;;;;;;5089732;28;20415;-78
2021/08/12 01:21:19;;;;;;;14.25;12.50;;;12.50;99.90;;;;;;5090565;28;20388;-77
2021/08/12 01:23:45;;;;;;;12.93;11.52;;;12.50;99.90;;;;;;5043483;28;20377;-79
2021/08/12 01:26:14;;;;;;;13.55;12.18;;;12.50;99.90;;;;;;5090623;28;20379;-79
2021/08/12 01:28:45;;;;;;;13.18;11.80;;;12.50;99.90;;;;;;5071829;28;20392;-79
2021/08/12 01:31:26;;;;;;;13.80;12.45;;;12.50;99.90;;;;;;5090541;28;20369;-78
2021/08/12 01:34:22;;;;;;;13.53;12.23;;;12.40;99.90;;;;;;5090218;28;20373;-80
2021/08/12 01:36:48;;;;;;;14.43;13.00;;;12.40;99.90;;;;;;5072233;28;20766;-77
2021/08/12 01:39:15;;;;;;;13.93;12.52;;;12.40;99.90;;;;;;5089970;28;20405;-80
2021/08/12 01:41:44;;;;;;;14.55;12.75;;;12.40;99.90;;;;;;5089963;28;20418;-76
2021/08/12 01:44:12;;;;;;;16.25;12.98;;;12.40;99.90;;;;;;5071888;28;20387;-77
2021/08/12 01:46:38;;;;;;;15.48;13.98;;;12.40;99.90;;;;;;5071620;28;20898;-77
2021/08/12 01:49:06;;;;;;;14.75;13.13;;;12.40;99.90;;;;;;5089865;28;20379;-78
2021/08/12 01:51:34;;;;;;;14.27;12.80;;;12.40;99.90;;;;;;5090446;28;20413;-80
2021/08/12 01:54:01;;;;;;;15.57;14.07;;;12.40;99.90;;;;;;5089892;28;20372;-78
2021/08/12 01:56:28;;;;;;;14.48;13.07;;;12.30;99.90;;;;;;5089815;28;20392;-80
2021/08/12 01:58:57;;;;;;;15.83;14.17;;;12.30;99.90;;;;;;5089701;28;20463;-79
2021/08/12 02:01:24;;;;;;;15.80;14.20;;;12.30;99.90;;;;;;5089799;28;20404;-80
2021/08/12 02:03:50;;;;;;;15.07;13.60;;;12.30;99.90;;;;;;5071386;28;20411;-79
2021/08/12 02:06:19;;;;;;;16.30;14.63;;;12.30;99.90;;;;;;5089685;28;20430;-80
2021/08/12 02:08:44;;;;;;;15.40;13.60;;;12.30;99.90;;;;;;5070996;28;20980;-77
2021/08/12 02:11:11;;;;;;;15.03;13.50;;;12.30;99.90;;;;;;5089517;28;20377;-79
2021/08/12 02:13:37;;;;;;;15.82;13.18;;;12.30;99.90;;;;;;5089400;28;20377;-79
2021/08/12 02:16:02;;;;;;;16.30;13.10;;;12.20;99.90;;;;;;5089581;28;20767;-78
2021/08/12 02:18:28;;;;;;;15.20;13.67;;;12.20;99.90;;;;;;5089214;28;20421;-78
2021/08/12 02:21:06;;;;;;;15.10;13.65;;;12.20;99.90;;;;;;5090111;28;20384;-79
2021/08/12 02:23:40;;;;;;;15.00;13.50;;;12.20;99.90;;;;;;5089654;28;20455;-79
2021/08/12 02:26:14;;;;;;;14.40;12.90;;;12.10;99.90;;;;;;5089729;28;20368;-78
2021/08/12 02:28:41;;;;;;;15.13;13.53;;;12.10;99.90;;;;;;5086555;28;20798;-80
2021/08/12 02:31:09;;;;;;;15.43;13.93;;;12.10;99.90;;;;;;5089359;28;20728;-80
2021/08/12 02:33:37;;;;;;;15.73;14.05;;;12.10;99.90;;;;;;5089218;28;20439;-79
2021/08/12 02:36:08;;;;;;;16.30;13.60;;;12.10;99.90;;;;;;5070892;28;20422;-80
2021/08/12 02:38:36;;;;;;;15.48;13.98;;;12.10;99.90;;;;;;5070489;28;20392;-79
2021/08/12 02:41:04;;;;;;;16.13;14.48;;;12.10;99.90;;;;;;5071081;28;20910;-79
2021/08/12 02:43:30;;;;;;;15.95;14.30;;;12.00;99.90;;;;;;5089053;28;20391;-78
2021/08/12 02:45:58;;;;;;;14.98;13.52;;;12.00;99.90;;;;;;5070974;28;20388;-76
2021/08/12 02:48:27;;;;;;;15.73;14.15;;;12.00;99.90;;;;;;5088621;28;20372;-78
2021/08/12 02:50:54;;;;;;;16.80;15.13;;;11.90;99.90;;;;;;5088996;28;20893;-80
2021/08/12 02:53:21;;;;;;;15.73;14.13;;;12.00;99.90;;;;;;5089109;28;20497;-78
2021/08/12 02:55:47;;;;;;;15.32;13.90;;;11.90;99.90;;;;;;5089053;28;20392;-79
2021/08/12 02:58:15;;;;;;;15.10;13.80;;;12.00;99.90;;;;;;5070322;28;20433;-80
2021/08/12 03:00:40;;;;;;;14.73;13.25;;;12.00;99.90;;;;;;5089011;28;20372;-78
2021/08/12 03:03:07;;;;;;;14.88;13.38;;;11.90;99.90;;;;;;5088981;28;20379;-80
2021/08/12 03:05:34;;;;;;;15.40;13.50;;;11.90;99.90;;;;;;5088901;28;20722;-77
2021/08/12 03:08:02;;;;;;;14.75;13.43;;;11.90;99.90;;;;;;5088820;28;20384;-77
2021/08/12 03:10:28;;;;;;;13.93;12.53;;;11.90;99.90;;;;;;5070759;28;20433;-77
2021/08/12 03:12:55;;;;;;;14.65;13.15;;;11.90;99.90;;;;;;5088990;28;20397;-77
2021/08/12 03:15:22;;;;;;;14.55;12.95;;;11.80;99.90;;;;;;5070341;28;20432;-78
2021/08/12 03:17:47;;;;;;;13.43;12.15;;;11.80;99.90;;;;;;5089080;28;20368;-78
2021/08/12 03:20:13;;;;;;;14.85;13.30;;;11.80;99.90;;;;;;5088452;28;20438;-79
2021/08/12 03:22:41;;;;;;;14.93;13.48;;;11.80;99.90;;;;;;5088523;28;20479;-77
2021/08/12 03:25:07;;;;;;;14.97;13.53;;;11.80;99.90;;;;;;5088826;28;20369;-78
2021/08/12 03:27:32;;;;;;;14.98;13.48;;;11.80;99.90;;;;;;5088935;28;20377;-77
2021/08/12 03:29:58;;;;;;;15.57;13.97;;;11.80;99.90;;;;;;5088097;28;20462;-79
2021/08/12 03:32:24;;;;;;;14.20;12.70;;;11.70;99.90;;;;;;5088708;28;20946;-79
2021/08/12 03:34:49;;;;;;;15.97;13.90;;;11.70;99.90;;;;;;5088770;28;20392;-79
2021/08/12 03:37:15;;;;;;;15.73;13.20;;;11.70;99.90;;;;;;5088652;28;20961;-78
2021/08/12 03:39:42;;;;;;;14.27;12.90;;;11.60;99.90;;;;;;5088518;28;20491;-77
2021/08/12 03:42:08;;;;;;;16.20;14.60;;;11.60;99.90;;;;;;5089960;28;20383;-79
2021/08/12 03:44:33;;;;;;;16.57;13.97;;;11.70;99.90;;;;;;5074205;28;20438;-76
2021/08/12 03:46:59;;;;;;;15.80;14.20;;;11.60;99.90;;;;;;5092710;28;20818;-78
2021/08/12 03:49:24;;;;;;;16.85;15.27;;;11.60;99.90;;;;;;5092257;28;20426;-77
2021/08/12 03:51:50;;;;;;;15.53;14.03;;;11.60;99.90;;;;;;5092539;28;20375;-78
2021/08/12 03:54:16;;;;;;;15.93;14.25;;;11.70;99.90;;;;;;5092476;28;20384;-78
2021/08/12 07:11:19;;;;;;;6.15;4.82;;;22.80;99.90;;;;;;5052869;28;20429;-80
2021/08/12 07:13:46;;;;;;;5.27;4.60;;;23.00;99.90;;;;;;5052845;28;20427;-81
2021/08/12 07:16:14;;;;;;;6.45;4.30;;;23.20;99.90;;;;;;5046296;28;20411;-79
2021/08/12 07:18:40;;;;;;;7.93;4.95;;;23.30;99.90;;;;;;5028866;28;20430;-80
2021/08/12 07:21:22;;;;;;;8.40;5.30;;;23.40;99.90;;;;;;5072129;28;20777;-77
2021/08/12 07:23:47;;;;;;;5.53;4.68;;;23.50;99.90;;;;;;5056421;28;20380;-78
2021/08/12 07:26:15;;;;;;;6.07;4.40;;;23.60;99.90;;;;;;5052768;28;20376;-81
2021/08/12 07:28:41;;;;;;;6.13;4.72;;;23.70;99.90;;;;;;5051904;28;20380;-78
2021/08/12 07:31:08;;;;;;;6.65;4.57;;;23.80;99.90;;;;;;5034990;28;20987;-79
2021/08/12 07:33:35;;;;;;;5.65;4.18;;;23.90;99.90;;;;;;5052983;28;20372;-79
2021/08/12 07:36:02;;;;;;;5.40;4.07;;;24.10;99.90;;;;;;5036672;28;20400;-82
2021/08/12 07:38:29;;;;;;;5.30;4.00;;;24.30;99.90;;;;;;5031790;28;20385;-81
2021/08/12 07:40:54;;;;;;;3.80;3.30;;;24.40;99.90;;;;;;5014801;28;20754;-78
2021/08/12 07:43:20;;;;;;;3.67;3.23;;;24.50;99.90;;;;;;5035796;28;20424;-80
2021/08/12 07:45:45;;;;;;;4.90;3.33;;;24.70;99.90;;;;;;5052546;28;20378;-82
2021/08/12 07:48:11;;;;;;;5.03;3.78;;;24.90;99.90;;;;;;5051949;28;21052;-78
2021/08/12 07:50:36;;;;;;;4.73;3.40;;;25.00;99.90;;;;;;5038106;28;20401;-79
2021/08/12 07:53:02;;;;;;;4.97;3.63;;;25.00;99.90;;;;;;5032344;28;20388;-81
2021/08/12 07:55:28;;;;;;;4.20;3.40;;;25.00;99.90;;;;;;5032138;28;20384;-79
2021/08/12 07:57:53;;;;;;;4.40;3.27;;;24.90;99.90;;;;;;5014293;28;20385;-82
2021/08/12 08:00:19;;;;;;;6.93;3.03;;;25.10;99.90;;;;;;5042366;28;20392;-78
2021/08/12 08:02:46;;;;;;;5.38;3.17;;;25.30;99.90;;;;;;5034551;28;20372;-80
2021/08/12 08:05:20;;;;;;;4.75;2.80;;;25.30;99.90;;;;;;5052203;28;20386;-80
2021/08/12 08:07:48;;;;;;;4.47;3.13;;;25.20;99.90;;;;;;5052449;28;20412;-80
2021/08/12 08:10:15;;;;;;;3.10;2.80;;;25.30;99.90;;;;;;5041607;28;20476;-77
2021/08/12 08:12:42;;;;;;;4.20;3.05;;;25.40;99.90;;;;;;5031975;28;20385;-82
2021/08/12 08:15:12;;;;;;;5.38;3.25;;;25.40;99.90;;;;;;5039087;28;20411;-81
2021/08/12 08:17:39;;;;;;;5.03;3.28;;;25.50;99.90;;;;;;5050019;28;20780;-83
2021/08/12 08:20:05;;;;;;;4.35;3.13;;;25.70;99.90;;;;;;5050009;28;20430;-79
2021/08/12 08:22:31;;;;;;;5.35;3.33;;;25.90;99.90;;;;;;5032508;28;20372;-80
2021/08/12 08:24:59;;;;;;;5.83;3.30;;;;;;;;;;5050735;28;20392;-82
2021/08/12 08:27:25;;;;;;;6.88;3.47;;;;;;;;;;5050175;28;20402;-80
2021/08/12 08:29:52;;;;;;;8.05;3.58;;;;;;;;;;5044793;28;20504;-84
2021/08/12 08:32:18;;;;;;;5.90;3.30;;;;;;;;;;5030766;28;20377;-77
2021/08/12 08:34:44;;;;;;;6.25;3.17;;;;;;;;;;5045628;28;20391;-80
2021/08/12 08:37:10;;;;;;;4.40;3.25;;;;;;;;;;5049822;28;20407;-80
2021/08/12 08:39:36;;;;;;;4.85;3.50;;;;;;;;;;5050147;28;20380;-81
2021/08/12 08:42:03;;;;;;;3.40;2.63;;;;;;;;;;5028684;28;20739;-79
2021/08/12 08:44:30;;;;;;;4.55;2.97;;;;;;;;;;5030615;28;20392;-80
2021/08/12 08:46:58;;;;;;;3.20;2.85;;;26.30;99.90;;;;;;5030471;28;20435;-78
2021/08/12 08:49:24;;;;;;;3.65;2.60;;;26.40;99.90;;;;;;5030489;28;20453;-82
2021/08/12 08:51:51;;;;;;;5.15;2.90;;;26.50;99.90;;;;;;5031217;28;20381;-80
2021/08/12 08:54:17;;;;;;;4.95;2.80;;;26.60;99.90;;;;;;5031201;28;20378;-81
2021/08/12 08:56:43;;;;;;;3.33;2.83;;;26.40;99.90;;;;;;5040110;28;20395;-79
2021/08/12 08:59:10;;;;;;;4.50;3.10;;;;;;;;;;5050239;28;20402;-80
2021/08/12 09:01:37;;;;;;;5.40;3.20;;;;;;;;;;5050427;28;20364;-80
2021/08/12 09:04:03;;;;;;;3.90;2.70;;;;;;;;;;5051158;28;20364;-81
2021/08/12 09:06:29;;;;;;;3.00;2.60;;;;;;;;;;5049150;28;21058;-78
2021/08/12 09:08:58;;;;;;;5.00;2.78;;;;;;;;;;5050382;28;20375;-80
2021/08/12 09:11:25;;;;;;;4.25;3.20;;;;;;;;;;5050551;28;20476;-80
2021/08/12 09:13:51;;;;;;;4.03;2.70;;;;;;;;;;5051196;28;20375;-80
2021/08/12 09:16:30;;;;;;;2.95;2.60;;;;;;;;;;5050816;28;20412;-81
2021/08/12 09:19:20;;;;;;;3.57;3.07;;;;;;;;;;5050100;28;20400;-80
2021/08/12 09:21:46;;;;;;;4.00;2.63;;;;;;;;;;5032039;28;20388;-80
2021/08/12 09:24:14;;;;;;;3.85;2.60;;;;;;;;;;5029184;28;20392;-78
2021/08/12 09:26:41;;;;;;;3.95;2.70;;;;;;;;;;5046656;28;20379;-76
2021/08/12 09:29:07;;;;;;;3.45;2.58;;;;;;;;;;5048236;28;20382;-82
2021/08/12 09:31:33;;;;;;;4.60;2.60;;;;;;;;;;5049983;28;20368;-78
2021/08/12 09:33:59;;;;;;;3.55;3.00;;;;;;;;;;5050145;28;20367;-78
2021/08/12 09:36:44;;;;;;;11.88;3.22;;;;;;;;;;5031268;28;20784;-81
2021/08/12 09:39:19;;;;;;;3.30;2.60;;;;;;;;;;5036634;28;20386;-83
2021/08/12 09:41:45;;;;;;;4.97;2.30;;;;;;;;;;5049856;28;20367;-81
2021/08/12 09:44:30;;;;;;;4.40;3.00;;;;;;;;;;5046408;28;20434;-80
2021/08/12 09:47:00;;;;;;;4.85;2.78;;;;;;;;;;5048645;28;20380;-83
2021/08/12 09:49:35;;;;;;;3.25;2.95;;;;;;;;;;5048443;28;20393;-76
2021/08/12 09:52:15;;;;;;;5.30;2.58;;;;;;;;;;5062654;28;20427;-82
2021/08/12 09:54:41;;;;;;;3.67;2.70;;;;;;;;;;5068604;28;20374;-79
2021/08/12 09:57:21;;;;;;;4.03;2.70;;;;;;;;;;5048535;28;20430;-80
2021/08/12 09:59:48;;;;;;;5.75;2.88;;;;;;;;;;5030747;28;20988;-78
2021/08/12 10:02:14;;;;;;;4.88;2.92;;;;;;;;;;5031376;28;20388;-87
2021/08/12 10:04:40;;;;;;;4.05;2.88;;;;;;;;;;5049600;28;20379;-84
2021/08/12 10:07:06;;;;;;;16.88;3.67;;;;;;;;;;5049704;28;20514;-85
2021/08/12 10:09:41;;;;;;;7.68;3.28;;;;;;;;;;5049071;28;20427;-79
2021/08/12 10:12:08;;;;;;;6.05;3.20;;;;;;;;;;5049857;28;20439;-83
2021/08/12 10:14:35;;;;;;;4.20;2.75;;;;;;;;;;5049227;28;20379;-82
2021/08/12 10:17:02;;;;;;;5.30;3.20;;;;;;;;;;5033656;28;20459;-79
2021/08/12 10:19:28;;;;;;;6.05;2.80;;;;;;;;;;5029146;28;20496;-83
2021/08/12 10:21:54;;;;;;;4.20;2.97;;;;;;;;;;5029775;28;20417;-81
2021/08/12 10:24:21;;;;;;;4.15;2.70;;;;;;;;;;5033669;28;20389;-78
2021/08/12 10:26:51;;;;;;;3.72;2.72;;;;;;;;;;5062639;28;21446;-82
2021/08/12 10:29:22;;;;;;;4.10;2.72;;;;;;;;;;5064865;28;20384;-80
2021/08/12 10:31:49;;;;;;;3.60;2.80;;;;;;;;;;5049069;28;20374;-80
2021/08/12 10:34:15;;;;;;;2.55;2.35;;;;;;;;;;5040733;28;20469;-81
2021/08/12 10:36:41;;;;;;;5.47;2.70;;;;;;;;;;5067719;28;20430;-83
2021/08/12 10:39:08;;;;;;;4.40;2.95;;;;;;;;;;5050803;28;20392;-79
2021/08/12 10:41:37;;;;;;;4.10;2.63;;;;;;;;;;5068894;28;20382;-79
2021/08/12 10:44:03;;;;;;;3.88;2.78;;;;;;;;;;5051438;28;20378;-81
2021/08/12 10:46:40;;;;;;;3.83;2.70;;;;;;;;;;5069011;28;20406;-82
2021/08/12 10:49:25;;;;;;;6.73;3.20;;;;;;;;;;5069061;28;20401;-83
2021/08/12 10:51:59;;;;;;;6.20;2.97;;;;;;;;;;5069106;28;20378;-80
2021/08/12 10:54:25;;;;;;;3.95;3.05;;;;;;;;;;5051039;28;20386;-80
2021/08/12 10:56:51;;;;;;;7.30;3.15;;;;;;;;;;5038280;28;20428;-80
2021/08/12 10:59:33;;;;;;;4.68;2.80;;;;;;;;;;5028673;28;20863;-84
2021/08/12 11:01:59;;;;;;;4.40;3.00;;;;;;;;;;5030293;28;20783;-82
2021/08/12 11:04:45;;;;;;;4.55;2.90;;;;;;;;;;5029179;28;20384;-83
2021/08/12 11:07:31;;;;;;;4.33;2.80;;;;;;;;;;5031929;28;20411;-84
2021/08/12 11:09:57;;;;;;;3.55;2.97;;;;;;;;;;5046349;28;20401;-81
2021/08/12 11:12:43;;;;;;;3.42;2.90;;;;;;;;;;5047226;28;20387;-82
2021/08/12 11:15:09;;;;;;;3.33;2.38;;;;;;;;;;5048230;28;20375;-84
2021/08/12 11:17:56;;;;;;;3.30;2.75;;;;;;;;;;5048990;28;20392;-84
2021/08/12 11:20:32;;;;;;;5.53;3.10;;;;;;;;;;5043467;28;20484;-82
2021/08/12 11:23:19;;;;;;;3.73;2.80;;;;;;;;;;5056512;28;20366;-79
2021/08/12 11:26:04;;;;;;;3.13;2.83;;;;;;;;;;5065285;28;20372;-83
2021/08/12 11:28:39;;;;;;;3.83;2.90;;;;;;;;;;5048406;28;20368;-82
2021/08/12 11:31:06;;;;;;;3.55;2.67;;;;;;;;;;5049132;28;20371;-78
2021/08/12 11:33:32;;;;;;;3.55;2.70;;;;;;;;;;5048299;28;20383;-81
2021/08/12 11:36:06;;;;;;;4.70;2.60;;;;;;;;;;5046909;28;20576;-83
2021/08/12 11:38:32;;;;;;;4.63;2.70;;;;;;;;;;5048145;28;20364;-81
2021/08/12 11:40:58;;;;;;;3.88;3.17;;;;;;;;;;5048183;28;20384;-82
2021/08/12 11:43:24;;;;;;;4.20;2.85;;;;;;;;;;5038710;28;20478;-82
2021/08/12 11:45:51;;;;;;;4.10;2.83;;;;;;;;;;5010055;28;20979;-83
2021/08/12 11:48:17;;;;;;;5.03;2.93;;;;;;;;;;5027550;28;20377;-81
2021/08/12 11:50:43;;;;;;;4.60;2.78;;;;;;;;;;5012308;28;20871;-84
2021/08/12 11:53:09;;;;;;;4.07;2.80;;;;;;;;;;5030290;28;20399;-82
2021/08/12 11:55:36;;;;;;;9.73;3.00;;;;;;;;;;5029921;28;20383;-87
2021/08/12 11:58:02;;;;;;;4.30;2.58;;;;;;;;;;5047644;28;20907;-82
2021/08/12 12:00:32;;;;;;;3.50;2.60;;;;;;;;;;5035429;28;20392;-80
2021/08/12 12:03:05;;;;;;;3.93;2.90;;;;;;;;;;5037398;28;20388;-85
2021/08/12 12:05:32;;;;;;;7.35;2.95;;;;;;;;;;5068695;28;20461;-81
2021/08/12 12:07:58;;;;;;;6.20;3.00;;;;;;;;;;5067230;28;20392;-83
2021/08/12 12:10:24;;;;;;;4.10;2.70;;;;;;;;;;5047627;28;20453;-80
2021/08/12 12:12:50;;;;;;;5.68;2.80;;;;;;;;;;5033590;28;20376;-86
2021/08/12 12:15:36;;;;;;;4.38;2.90;;;;;;;;;;5051906;28;20933;-83
2021/08/12 12:18:02;;;;;;;3.22;2.70;;;;;;;;;;5051257;28;20928;-84
2021/08/12 12:20:29;;;;;;;4.43;2.90;;;;;;;;;;5058141;28;20413;-86
2021/08/12 12:23:05;;;;;;;5.90;3.03;;;;;;;;;;5053072;28;20376;-79
2021/08/12 12:25:33;;;;;;;4.63;3.30;;;;;;;;;;5039540;28;20583;-89
2021/08/12 12:28:00;;;;;;;4.65;3.05;;;;;;;;;;5041274;28;20736;-79
2021/08/12 12:30:27;;;;;;;4.53;3.25;;;;;;;;;;5051743;28;20422;-83
2021/08/12 12:32:59;;;;;;;4.07;3.10;;;;;;;;;;5051609;28;20372;-83
2021/08/12 12:35:25;;;;;;;4.15;3.25;;;;;;;;;;5051814;28;20373;-84
2021/08/12 12:37:51;;;;;;;4.43;3.40;;;;;;;;;;5051426;28;20498;-79
2021/08/12 12:40:18;;;;;;;5.32;3.53;;;;;;;;;;5051131;28;20451;-82
2021/08/12 12:42:44;;;;;;;4.05;3.65;;;;;;;;;;5051334;28;20388;-82
2021/08/12 12:45:11;;;;;;;4.55;3.58;;;;;;;;;;5051299;28;20400;-83
2021/08/12 12:47:37;;;;;;;3.80;3.50;;;;;;;;;;5051597;28;20451;-79
2021/08/12 12:50:08;;;;;;;3.90;3.50;;;;;;;;;;5050874;28;20379;-83
2021/08/12 12:52:34;;;;;;;4.30;3.85;;;;;;;;;;5050990;28;20384;-81
2021/08/12 12:55:00;;;;;;;32.63;5.45;;;;;;;;;;5051202;28;20407;-84
2021/08/12 12:57:32;;;;;;;8.18;3.83;;;;;;;;;;5051022;28;20808;-83
2021/08/12 12:59:59;;;;;;;3.97;3.20;;;;;;;;;;5032704;28;20471;-82
2021/08/12 13:02:25;;;;;;;3.83;3.42;;;;;;;;;;5049410;28;20364;-83
2021/08/12 13:04:58;;;;;;;4.00;3.28;;;;;;;;;;5031181;28;20792;-82
2021/08/12 13:07:24;;;;;;;6.82;3.80;;;;;;;;;;5048847;28;20383;-83
2021/08/12 13:09:49;;;;;;;5.23;3.50;;;;;;;;;;5049386;28;20376;-83
2021/08/12 13:12:26;;;;;;;4.50;3.63;;;;;;;;;;5048646;28;20388;-83
2021/08/12 13:14:52;;;;;;;4.43;3.55;;;;;;;;;;5048654;28;20905;-86
2021/08/12 13:17:30;;;;;;;5.28;3.60;;;;;;;;;;5050605;28;20486;-81
2021/08/12 13:20:09;;;;;;;5.65;3.85;;;;;;;;;;5050345;28;20391;-82
2021/08/12 13:22:55;;;;;;;4.05;3.50;;;;;;;;;;5032376;28;20383;-84
2021/08/12 13:25:25;;;;;;;5.88;3.55;;;;;;;;;;5050701;28;20372;-84
2021/08/12 13:27:52;;;;;;;5.43;3.88;;;;;;;;;;5050546;28;20372;-83
2021/08/12 13:30:19;;;;;;;4.78;3.75;;;;;;;;;;5050436;28;20462;-85
2021/08/12 13:32:45;;;;;;;5.17;3.90;;;;;;;;;;5050610;28;20380;-83
2021/08/12 13:35:11;;;;;;;7.55;3.45;;;;;;;;;;5050757;28;20454;-83
2021/08/12 13:37:37;;;;;;;3.50;3.20;;;;;;;;;;5032424;28;20598;-82
2021/08/12 13:40:04;;;;;;;5.28;4.03;;;;;;;;;;5049695;28;20367;-83
2021/08/12 13:42:30;;;;;;;4.43;3.88;;;;;;;;;;5050186;28;20390;-81
2021/08/12 13:44:56;;;;;;;4.60;3.97;;;;;;;;;;5050020;28;20372;-82
2021/08/12 13:47:22;;;;;;;3.80;3.40;;;;;;;;;;5050171;28;20368;-81
2021/08/12 13:49:48;;;;;;;5.60;4.07;;;;;;;;;;5031992;28;20376;-85
2021/08/12 13:52:14;;;;;;;4.95;3.75;;;;;;;;;;5051958;28;20935;-82
2021/08/12 13:54:42;;;;;;;5.45;4.00;;;;;;;;;;5040575;28;20442;-87
2021/08/12 13:57:08;;;;;;;19.92;5.43;;;;;;;;;;5060593;28;20503;-81
2021/08/12 13:59:34;;;;;;;4.50;3.60;;;;;;;;;;5057717;28;20445;-85
2021/08/12 14:02:00;;;;;;;4.32;3.72;;;;;;;;;;5056758;28;21208;-84
2021/08/12 14:04:27;;;;;;;9.27;3.83;;;;;;;;;;5056995;28;20381;-80
2021/08/12 14:06:55;;;;;;;5.87;3.87;;;;;;;;;;5057934;28;20383;-83
2021/08/12 14:09:21;;;;;;;3.63;3.33;;;;;;;;;;5057256;28;20393;-81
2021/08/12 14:11:47;;;;;;;3.80;3.40;;;;;;;;;;5059173;28;20451;-86
2021/08/12 14:14:13;;;;;;;7.07;4.00;;;;;;;;;;5043636;28;20751;-80
2021/08/12 14:16:39;;;;;;;5.13;3.60;;;;;;;;;;5069662;28;20823;-82
2021/08/12 14:19:06;;;;;;;6.03;4.17;;;;;;;;;;5069533;28;20381;-84
2021/08/12 14:21:32;;;;;;;10.90;4.47;;;;;;;;;;5051583;28;20385;-83
2021/08/12 14:23:59;;;;;;;8.95;4.20;;;;;;;;;;5061644;28;20396;-84
2021/08/12 14:26:25;;;;;;;7.15;3.95;;;;;;;;;;5046104;28;20440;-83
2021/08/12 14:28:51;;;;;;;5.00;4.15;;;;;;;;;;5041836;28;20366;-85
2021/08/12 14:31:17;;;;;;;8.88;4.25;;;;;;;;;;5039647;28;20899;-80
2021/08/12 14:33:44;;;;;;;5.88;4.20;;;;;;;;;;5039432;28;20410;-84
2021/08/12 14:36:10;;;;;;;9.35;4.60;;;;;;;;;;5027423;28;20503;-81
2021/08/12 14:38:37;;;;;;;4.70;4.05;;;;;;;;;;5040127;28;20397;-80
2021/08/12 14:41:05;;;;;;;8.63;4.17;;;;;;;;;;5041140;28;20864;-81
2021/08/12 14:43:31;;;;;;;4.70;3.78;;;;;;;;;;5038813;28;20735;-85
2021/08/12 14:45:58;;;;;;;4.45;3.58;;;;;;;;;;5031355;28;20476;-83
2021/08/12 14:48:24;;;;;;;6.35;3.80;;;;;;;;;;5048683;28;20376;-85
2021/08/12 14:50:51;;;;;;;5.20;3.78;;;;;;;;;;5050793;28;20460;-83
2021/08/12 14:53:17;;;;;;;8.15;3.80;;;;;;;;;;5057979;28;20387;-82
2021/08/12 14:55:44;;;;;;;5.93;4.03;;;;;;;;;;5056827;28;20415;-81
2021/08/12 14:58:10;;;;;;;14.10;4.72;;;;;;;;;;5055906;28;20382;-86
2021/08/12 15:00:36;;;;;;;11.75;4.50;;;;;;;;;;5040687;28;20372;-82
2021/08/12 15:03:02;;;;;;;4.30;3.90;;;;;;;;;;5041701;28;20442;-82
2021/08/12 15:05:28;;;;;;;4.38;3.97;;;;;;;;;;5057616;28;20368;-81
2021/08/12 15:07:54;;;;;;;5.85;3.72;;;;;;;;;;5057042;28;20369;-81
2021/08/12 15:10:20;;;;;;;5.97;4.10;;;;;;;;;;5058486;28;20370;-82
2021/08/12 15:12:46;;;;;;;4.63;3.90;;;;;;;;;;5039602;28;20862;-84
2021/08/12 15:15:12;;;;;;;11.23;4.03;;;;;;;;;;5057713;28;20365;-83
2021/08/12 15:17:38;;;;;;;7.35;3.78;;;;;;;;;;5057614;28;20400;-84
2021/08/12 15:20:05;;;;;;;7.25;4.40;;;;;;;;;;5033991;28;20934;-82
2021/08/12 15:22:31;;;;;;;6.53;3.97;;;;;;;;;;5035801;28;20388;-83
2021/08/12 15:24:57;;;;;;;6.63;3.77;;;;;;;;;;5059473;28;20439;-82
2021/08/12 15:27:24;;;;;;;9.02;4.20;;;;;;;;;;5056145;28;20366;-87
2021/08/12 15:29:50;;;;;;;6.15;3.90;;;;;;;;;;5058442;28;20461;-85
2021/08/12 15:32:16;;;;;;;4.78;3.65;;;;;;;;;;5056984;28;20376;-86
2021/08/12 15:34:42;;;;;;;5.25;3.90;;;;;;;;;;5039600;28;20362;-86
2021/08/12 15:37:08;;;;;;;4.50;4.10;;;;;;;;;;5058640;28;20398;-82
2021/08/12 15:39:34;;;;;;;5.35;3.67;;;;;;;;;;5041891;28;20370;-84
2021/08/12 15:42:00;;;;;;;6.40;4.15;;;;;;;;;;5062471;28;20376;-82
2021/08/12 15:44:27;;;;;;;4.75;4.05;;;;;;;;;;5062996;28;20362;-81
2021/08/12 15:46:53;;;;;;;8.70;4.22;;;;;;;;;;5038668;28;20481;-83
2021/08/12 15:49:26;;;;;;;5.47;4.00;;;;;;;;;;5062378;28;20474;-85
2021/08/12 15:51:52;;;;;;;5.07;4.07;;;;;;;;;;5061365;28;20374;-85
2021/08/12 15:54:18;;;;;;;4.53;4.10;;;;;;;;;;5043242;28;20392;-83
2021/08/12 15:56:44;;;;;;;4.85;4.00;;;;;;;;;;5062092;28;20411;-86
2021/08/12 15:59:10;;;;;;;6.53;4.17;;;;;;;;;;5057604;28;20423;-84
2021/08/12 16:01:36;;;;;;;6.20;4.20;;;;;;;;;;5061451;28;20366;-84
2021/08/12 16:04:02;;;;;;;4.90;3.90;;;;;;;;;;5056325;28;20372;-87
2021/08/12 16:06:29;;;;;;;6.37;4.33;;;;;;;;;;5041053;28;20734;-86
2021/08/12 16:08:55;;;;;;;12.13;6.13;;;;;;;;;;5058090;28;20392;-86
2021/08/12 16:11:21;;;;;;;9.38;4.88;;;;;;;;;;5058282;28;20729;-84
2021/08/12 16:13:47;;;;;;;9.55;5.55;;;;;;;;;;5040764;28;20952;-83
2021/08/12 16:16:13;;;;;;;14.50;11.63;;;;;;;;;;5056697;28;20411;-88
2021/08/12 16:18:39;;;;;;;13.57;12.15;;;;;;;;;;5061067;28;20874;-80
2021/08/12 16:21:05;;;;;;;7.15;6.30;;;;;;;;;;5040133;28;20363;-84
2021/08/12 16:23:31;;;;;;;20.77;6.95;;;;;;;;;;5043997;28;20771;-81
2021/08/12 16:25:57;;;;;;;8.98;5.03;;;;;;;;;;5061499;28;20420;-81
2021/08/12 16:28:23;;;;;;;32.53;8.65;;;;;;;;;;5055659;28;20959;-82
2021/08/12 16:30:49;;;;;;;6.57;4.25;;;;;;;;;;5060601;28;20858;-82
2021/08/12 16:33:15;;;;;;;34.03;7.45;;;;;;;;;;5041366;28;20844;-84
2021/08/12 16:35:41;;;;;;;12.98;8.63;;;;;;;;;;5056356;28;20409;-83
2021/08/12 16:38:07;;;;;;;16.17;9.53;;;;;;;;;;5043225;28;20526;-83
2021/08/12 16:40:33;;;;;;;8.57;6.50;;;;;;;;;;5056388;28;20513;-83
2021/08/12 16:42:59;;;;;;;6.45;4.90;;;;;;;;;;5039586;28;20373;-82
2021/08/12 16:45:25;;;;;;;5.57;4.60;;;;;;;;;;5041707;28;20368;-83
2021/08/12 16:47:51;;;;;;;6.90;4.85;;;;;;;;;;5045439;28;20392;-86
2021/08/12 16:50:17;;;;;;;4.78;4.13;;;;;;;;;;5040520;28;20729;-83
2021/08/12 16:52:43;;;;;;;5.20;4.03;;;;;;;;;;5048831;28;20375;-84
2021/08/12 16:55:10;;;;;;;12.25;4.90;;;;;;;;;;5058971;28;20379;-81
2021/08/12 16:57:36;;;;;;;20.20;5.53;;;;;;;;;;5043243;28;20493;-83
2021/08/12 17:00:03;;;;;;;12.38;5.18;;;;;;;;;;5040713;28;20524;-82
2021/08/12 17:02:29;;;;;;;8.45;4.85;;;;;;;;;;5061076;28;20374;-85
2021/08/12 17:04:55;;;;;;;6.03;4.72;;;;;;;;;;5053371;28;20379;-81
2021/08/12 17:07:21;;;;;;;5.17;4.67;;;;;;;;;;5032834;28;20733;-82